createdAt,value
2022-10-17T00:01:00.104Z,14.95
2022-10-17T00:03:27.663Z,13.85
2022-10-17T00:05:54.949Z,15.23
2022-10-17T00:08:22.409Z,12.77
2022-10-17T00:11:02.967Z,12.02
2022-10-17T00:15:58.449Z,15.18
2022-10-17T00:18:25.971Z,16.10
2022-10-17T00:20:56.053Z,17.05
2022-10-17T00:23:24.187Z,15.52
2022-10-17T00:26:06.349Z,21.38
2022-10-17T00:28:33.914Z,18.42
2022-10-17T00:31:04.677Z,14.18
2022-10-17T00:33:33.009Z,16.05
2022-10-17T00:36:08.639Z,21.42
2022-10-17T00:38:37.100Z,15.60
2022-10-17T00:41:05.345Z,12.98
2022-10-17T00:43:59.740Z,13.65
2022-10-17T00:46:39.008Z,12.45
2022-10-17T00:49:12.690Z,15.55
2022-10-17T00:51:57.574Z,22.90
2022-10-17T00:54:30.679Z,14.05
2022-10-17T00:56:58.063Z,17.52
2022-10-17T00:59:29.651Z,16.17
2022-10-17T01:02:10.873Z,13.77
2022-10-17T01:04:42.593Z,15.32
2022-10-17T01:07:10.321Z,13.30
2022-10-17T01:09:38.873Z,11.57
2022-10-17T01:12:30.933Z,13.20
2022-10-17T01:15:19.428Z,13.18
2022-10-17T01:18:02.383Z,15.93
2022-10-17T01:20:51.002Z,18.27
2022-10-17T01:24:04.189Z,15.50
2022-10-17T01:27:31.346Z,15.15
2022-10-17T01:30:14.056Z,13.40
2022-10-17T01:33:03.027Z,13.98
2022-10-17T01:35:56.421Z,11.48
2022-10-17T01:38:46.069Z,15.35
2022-10-17T01:41:36.083Z,13.50
2022-10-17T01:44:42.650Z,13.23
2022-10-17T01:47:19.792Z,12.02
2022-10-17T01:49:50.835Z,12.10
2022-10-17T01:52:38.729Z,18.17
2022-10-17T01:55:22.362Z,13.15
2022-10-17T01:57:59.381Z,15.27
2022-10-17T02:00:30.089Z,12.73
2022-10-17T02:03:02.100Z,13.07
2022-10-17T02:05:35.917Z,11.95
2022-10-17T02:08:04.632Z,12.05
2022-10-17T02:11:03.560Z,16.58
2022-10-17T02:17:04.959Z,14.43
2022-10-17T02:20:09.753Z,17.30
2022-10-17T02:23:15.542Z,12.43
2022-10-17T02:25:57.158Z,11.48
2022-10-17T02:28:46.119Z,13.82
2022-10-17T02:32:19.229Z,19.85
2022-10-17T02:34:52.894Z,13.13
2022-10-17T02:37:27.362Z,11.68
2022-10-17T02:39:58.872Z,18.33
2022-10-17T02:42:28.227Z,13.60
2022-10-17T02:45:01.955Z,14.13
2022-10-17T02:47:59.340Z,12.60
2022-10-17T02:51:08.297Z,11.75
2022-10-17T02:54:11.116Z,15.43
2022-10-17T02:56:55.212Z,12.57
2022-10-17T02:59:25.293Z,12.98
2022-10-17T03:01:52.864Z,14.30
2022-10-17T03:04:20.835Z,16.15
2022-10-17T03:06:49.770Z,16.00
2022-10-17T03:09:18.711Z,14.60
2022-10-17T03:11:45.848Z,15.93
2022-10-17T03:14:13.352Z,16.65
2022-10-17T03:16:41.278Z,13.63
2022-10-17T03:19:08.870Z,14.88
2022-10-17T03:21:38.125Z,12.60
2022-10-17T03:26:34.854Z,11.20
2022-10-17T03:29:03.065Z,14.63
2022-10-17T03:31:30.986Z,13.43
2022-10-17T03:33:59.050Z,14.27
2022-10-17T03:36:26.248Z,13.55
2022-10-17T03:38:55.157Z,14.27
2022-10-17T03:41:23.347Z,12.70
2022-10-17T03:43:54.322Z,12.15
2022-10-17T03:46:22.122Z,17.35
2022-10-17T03:48:49.668Z,13.70
2022-10-17T03:51:17.079Z,12.43
2022-10-17T03:53:50.004Z,16.73
2022-10-17T03:56:23.287Z,13.32
2022-10-17T03:59:01.324Z,12.70
2022-10-17T04:01:30.452Z,14.10
2022-10-17T04:03:58.107Z,13.88
2022-10-17T04:06:29.267Z,14.13
2022-10-17T04:08:56.913Z,14.35
2022-10-17T04:12:02.781Z,11.90
2022-10-17T04:14:30.891Z,15.90
2022-10-17T04:16:58.571Z,12.30
2022-10-17T04:19:26.573Z,14.90
2022-10-17T04:21:54.875Z,20.95
2022-10-17T04:24:22.812Z,14.05
2022-10-17T04:27:05.369Z,11.98
2022-10-17T04:29:36.430Z,13.80
2022-10-17T04:32:15.732Z,10.82
2022-10-17T04:34:50.217Z,16.35
2022-10-17T04:37:20.560Z,12.32
2022-10-17T04:39:50.145Z,13.20
2022-10-17T04:42:17.507Z,19.65
2022-10-17T04:44:44.758Z,12.50
2022-10-17T04:47:15.304Z,9.95
2022-10-17T04:49:43.161Z,19.92
2022-10-17T04:52:11.665Z,15.48
2022-10-17T04:54:46.636Z,14.25
2022-10-17T04:57:15.012Z,12.70
2022-10-17T04:59:48.821Z,14.05
2022-10-17T05:02:25.710Z,13.30
2022-10-17T05:04:53.113Z,14.15
2022-10-17T05:07:21.408Z,14.73
2022-10-17T05:09:59.179Z,13.25
2022-10-17T05:12:27.158Z,14.10
2022-10-17T05:14:54.956Z,19.92
2022-10-17T05:17:25.148Z,12.95
2022-10-17T05:19:52.465Z,15.50
2022-10-17T05:22:20.075Z,14.68
2022-10-17T05:24:47.805Z,11.93
2022-10-17T05:27:15.095Z,13.70
2022-10-17T05:29:42.358Z,12.57
2022-10-17T05:32:25.172Z,17.38
2022-10-17T05:34:52.404Z,11.15
2022-10-17T05:37:21.056Z,12.60
2022-10-17T05:39:51.788Z,23.15
2022-10-17T05:42:20.108Z,12.27
2022-10-17T05:44:48.032Z,17.92
2022-10-17T05:47:17.886Z,14.80
2022-10-17T05:49:51.237Z,11.68
2022-10-17T05:52:23.593Z,12.80
2022-10-17T05:55:02.513Z,12.77
2022-10-17T05:57:29.826Z,17.63
2022-10-17T06:00:01.015Z,14.32
2022-10-17T06:02:29.786Z,9.93
2022-10-17T06:04:57.325Z,11.90
2022-10-17T06:07:24.875Z,15.60
2022-10-17T06:09:53.209Z,7.90
2022-10-17T06:12:20.502Z,7.97
2022-10-17T06:14:47.787Z,7.72
2022-10-17T06:17:16.641Z,9.38
2022-10-17T06:19:45.281Z,9.05
2022-10-17T06:22:15.058Z,8.45
2022-10-17T06:24:42.908Z,8.70
2022-10-17T06:27:11.945Z,10.35
2022-10-17T06:29:41.095Z,9.30
2022-10-17T06:32:11.244Z,11.05
2022-10-17T06:34:42.489Z,9.50
2022-10-17T06:37:10.593Z,10.75
2022-10-17T06:39:40.509Z,9.63
2022-10-17T06:42:17.380Z,12.68
2022-10-17T06:44:48.033Z,9.70
2022-10-17T06:47:41.724Z,10.20
2022-10-17T06:50:32.300Z,10.40
2022-10-17T06:53:10.522Z,16.48
2022-10-17T06:56:01.300Z,9.40
2022-10-17T06:58:52.969Z,9.10
2022-10-17T07:01:32.759Z,12.50
2022-10-17T07:04:01.352Z,14.30
2022-10-17T07:06:30.269Z,9.95
2022-10-17T07:09:02.848Z,6.90
2022-10-17T07:11:30.307Z,9.13
2022-10-17T07:13:57.683Z,6.63
2022-10-17T07:16:24.940Z,9.85
2022-10-17T07:19:00.802Z,7.05
2022-10-17T07:21:36.569Z,9.75
2022-10-17T07:24:07.590Z,7.18
2022-10-17T07:26:35.191Z,9.27
2022-10-17T07:29:02.636Z,8.80
2022-10-17T07:31:37.716Z,10.10
2022-10-17T07:34:05.252Z,9.80
2022-10-17T07:36:32.568Z,8.27
2022-10-17T07:39:02.430Z,10.10
2022-10-17T07:41:31.072Z,9.35
2022-10-17T07:43:58.315Z,9.40
2022-10-17T07:46:31.875Z,10.52
2022-10-17T07:48:59.854Z,8.82
2022-10-17T07:51:28.085Z,7.50
2022-10-17T07:53:55.368Z,10.57
2022-10-17T07:56:24.812Z,6.72
2022-10-17T07:58:53.689Z,12.07
2022-10-17T08:01:20.992Z,6.73
2022-10-17T08:03:51.446Z,6.97
2022-10-17T08:06:19.131Z,8.63
2022-10-17T08:08:46.355Z,8.93
2022-10-17T08:11:15.090Z,9.35
2022-10-17T08:13:42.732Z,8.07
2022-10-17T08:16:13.376Z,7.82
2022-10-17T08:18:43.494Z,7.03
2022-10-17T08:21:13.445Z,9.82
2022-10-17T08:23:40.856Z,7.93
2022-10-17T08:26:13.242Z,6.85
2022-10-17T08:28:41.352Z,9.88
2022-10-17T08:31:21.021Z,9.05
2022-10-17T08:36:19.847Z,8.70
2022-10-17T08:38:51.797Z,7.78
2022-10-17T08:41:26.017Z,8.85
2022-10-17T08:44:22.450Z,10.10
2022-10-17T08:46:57.128Z,6.65
2022-10-17T08:50:11.111Z,6.90
2022-10-17T08:53:12.007Z,7.30
2022-10-17T08:55:47.565Z,7.40
2022-10-17T08:58:26.183Z,6.55
2022-10-17T09:01:24.150Z,7.18
2022-10-17T09:04:23.371Z,6.68
2022-10-17T09:07:23.679Z,6.15
2022-10-17T09:10:38.289Z,7.75
2022-10-17T09:13:28.561Z,7.90
2022-10-17T09:16:08.162Z,8.23
2022-10-17T09:18:43.109Z,5.70
2022-10-17T09:22:02.839Z,6.80
2022-10-17T09:24:49.892Z,10.32
2022-10-17T09:28:04.718Z,8.15
2022-10-17T09:30:54.198Z,9.50
2022-10-17T09:33:42.296Z,13.43
2022-10-17T09:36:24.394Z,10.18
2022-10-17T09:38:59.872Z,8.20
2022-10-17T09:41:45.283Z,12.05
2022-10-17T09:44:22.895Z,13.32
2022-10-17T09:47:52.810Z,9.43
2022-10-17T09:50:34.888Z,9.80
2022-10-17T09:53:20.924Z,9.95
2022-10-17T09:55:57.987Z,9.52
2022-10-17T09:58:44.893Z,8.52
2022-10-17T10:01:22.725Z,9.40
2022-10-17T10:04:13.888Z,8.95
2022-10-17T10:07:01.160Z,17.25
2022-10-17T10:09:33.342Z,7.85
2022-10-17T10:12:17.161Z,7.65
2022-10-17T10:14:47.223Z,7.30
2022-10-17T10:17:29.123Z,7.28
2022-10-17T10:19:56.732Z,8.57
2022-10-17T10:22:23.940Z,9.27
2022-10-17T10:25:26.676Z,7.50
2022-10-17T10:27:54.937Z,9.18
2022-10-17T10:30:30.318Z,11.98
2022-10-17T10:33:00.548Z,7.20
2022-10-17T10:35:36.601Z,9.25
2022-10-17T10:38:14.624Z,10.10
2022-10-17T10:41:03.316Z,9.93
2022-10-17T10:43:51.818Z,11.73
2022-10-17T10:46:27.426Z,7.90
2022-10-17T10:48:59.739Z,10.07
2022-10-17T10:51:36.376Z,7.28
2022-10-17T10:54:13.735Z,9.50
2022-10-17T10:57:04.556Z,7.65
2022-10-17T10:59:43.880Z,11.30
2022-10-17T11:02:38.497Z,6.53
2022-10-17T11:05:41.221Z,9.30
2022-10-17T11:08:42.739Z,8.55
2022-10-17T11:11:40.679Z,8.13
2022-10-17T11:14:30.825Z,7.88
2022-10-17T11:17:50.053Z,8.35
2022-10-17T11:21:02.652Z,9.57
2022-10-17T11:23:47.096Z,11.93
2022-10-17T11:26:27.040Z,8.45
2022-10-17T11:29:00.469Z,6.55
2022-10-17T11:31:34.966Z,11.15
2022-10-17T11:34:25.790Z,6.13
2022-10-17T11:36:59.994Z,8.57
2022-10-17T11:40:03.245Z,12.00
2022-10-17T11:43:02.524Z,8.02
2022-10-17T11:45:40.135Z,8.18
2022-10-17T11:48:25.307Z,7.70
2022-10-17T11:54:24.346Z,11.35
2022-10-17T11:57:45.132Z,9.00
2022-10-17T12:00:25.893Z,7.88
2022-10-17T12:03:48.889Z,12.05
2022-10-17T12:07:09.377Z,6.82
2022-10-17T12:10:41.092Z,10.13
2022-10-17T12:13:33.306Z,9.90
2022-10-17T12:16:22.198Z,11.73
2022-10-17T12:19:03.179Z,7.60
2022-10-17T12:22:22.592Z,8.82
2022-10-17T12:25:04.460Z,12.07
2022-10-17T12:27:46.100Z,13.68
2022-10-17T12:30:13.624Z,11.52
2022-10-17T12:33:07.161Z,12.88
2022-10-17T12:35:38.753Z,12.13
2022-10-17T12:38:18.187Z,10.50
2022-10-17T12:43:16.338Z,12.10
2022-10-17T12:45:54.816Z,8.88
2022-10-17T12:48:34.019Z,8.60
2022-10-17T12:51:37.415Z,6.45
2022-10-17T12:54:16.399Z,6.38
2022-10-17T12:56:49.552Z,6.33
2022-10-17T12:59:25.827Z,4.03
2022-10-17T13:02:03.625Z,6.78
2022-10-17T13:04:31.969Z,3.25
2022-10-17T13:07:01.354Z,3.63
2022-10-17T13:09:42.934Z,6.75
2022-10-17T13:12:18.487Z,9.02
2022-10-17T13:14:47.266Z,5.25
2022-10-17T13:17:30.824Z,7.57
2022-10-17T13:19:59.019Z,5.57
2022-10-17T13:22:32.844Z,5.82
2022-10-17T13:25:19.121Z,6.90
2022-10-17T13:27:48.442Z,5.88
2022-10-17T13:30:47.893Z,4.80
2022-10-17T13:33:38.061Z,5.63
2022-10-17T13:36:13.718Z,3.83
2022-10-17T13:38:42.786Z,5.68
2022-10-17T13:41:34.682Z,6.30
2022-10-17T13:44:10.308Z,5.50
2022-10-17T13:46:40.339Z,9.38
2022-10-17T13:49:34.127Z,7.93
2022-10-17T13:52:04.486Z,8.15
2022-10-17T13:54:34.769Z,6.50
2022-10-17T13:57:04.698Z,9.48
2022-10-17T13:59:40.357Z,6.93
2022-10-17T14:02:20.446Z,8.70
2022-10-17T14:08:13.347Z,13.50
2022-10-17T14:10:44.563Z,10.18
2022-10-17T14:13:36.052Z,13.35
2022-10-17T14:16:05.365Z,8.90
2022-10-17T14:18:36.931Z,9.00
2022-10-17T14:24:26.593Z,5.50
2022-10-17T14:29:31.333Z,7.30
2022-10-17T14:32:08.536Z,9.80
2022-10-17T14:34:40.686Z,10.40
2022-10-17T14:37:46.572Z,8.65
2022-10-17T14:40:33.993Z,4.95
2022-10-17T14:43:06.106Z,8.93
2022-10-17T14:45:38.150Z,7.28
2022-10-17T14:48:18.477Z,6.40
2022-10-17T14:54:27.112Z,6.93
2022-10-17T14:56:55.817Z,7.18
2022-10-17T14:59:52.082Z,5.05
2022-10-17T15:02:13.194Z,8.07
2022-10-17T15:04:40.684Z,6.97
2022-10-17T15:07:10.585Z,6.78
2022-10-17T15:09:37.803Z,6.82
2022-10-17T15:12:13.106Z,9.43
2022-10-17T15:14:40.396Z,4.78
2022-10-17T15:17:22.400Z,4.50
2022-10-17T15:19:50.840Z,6.80
2022-10-17T15:22:18.695Z,5.35
2022-10-17T15:24:46.640Z,8.68
2022-10-17T15:27:24.368Z,11.60
2022-10-17T15:29:53.057Z,6.53
2022-10-17T15:32:20.463Z,6.93
2022-10-17T15:34:47.872Z,4.78
2022-10-17T15:37:24.581Z,6.13
2022-10-17T15:39:55.198Z,6.53
2022-10-17T15:42:28.649Z,5.90
2022-10-17T15:44:57.430Z,7.93
2022-10-17T15:47:33.788Z,10.70
2022-10-17T15:50:02.404Z,10.20
2022-10-17T15:52:29.859Z,9.18
2022-10-17T15:54:59.538Z,8.30
2022-10-17T15:57:34.997Z,12.73
2022-10-17T16:00:02.409Z,14.27
2022-10-17T16:02:36.649Z,13.23
2022-10-17T16:05:23.571Z,20.13
2022-10-17T16:07:51.606Z,15.55
2022-10-17T16:10:20.364Z,22.58
2022-10-17T16:12:49.875Z,16.63
2022-10-17T16:15:28.128Z,10.23
2022-10-17T16:17:57.416Z,10.30
2022-10-17T16:20:25.670Z,10.38
2022-10-17T16:22:59.950Z,15.27
2022-10-17T16:25:30.342Z,16.52
2022-10-17T16:28:00.352Z,20.40
2022-10-17T16:30:30.666Z,22.65
2022-10-17T16:32:57.936Z,33.65
2022-10-17T16:35:33.410Z,29.88
2022-10-17T16:38:06.046Z,30.55
2022-10-17T16:40:34.229Z,29.13
2022-10-17T16:43:01.842Z,22.48
2022-10-17T16:45:29.289Z,16.45
2022-10-17T16:47:56.731Z,13.35
2022-10-17T16:50:24.587Z,17.33
2022-10-17T16:52:51.884Z,12.85
2022-10-17T16:55:22.378Z,10.50
2022-10-17T17:00:18.070Z,9.60
2022-10-17T17:02:48.274Z,11.35
2022-10-17T17:05:15.963Z,23.42
2022-10-17T17:07:43.325Z,16.35
2022-10-17T17:10:10.779Z,7.78
2022-10-17T17:12:38.527Z,7.10
2022-10-17T17:15:06.185Z,10.98
2022-10-17T17:17:48.712Z,14.27
2022-10-17T17:20:17.708Z,11.40
2022-10-17T17:22:45.076Z,11.73
2022-10-17T17:25:12.434Z,12.23
2022-10-17T17:27:39.950Z,8.30
2022-10-17T17:30:07.985Z,7.57
2022-10-17T17:32:35.401Z,9.02
2022-10-17T17:35:02.903Z,9.25
2022-10-17T17:37:30.644Z,7.05
2022-10-17T17:39:58.188Z,9.27
2022-10-17T17:42:25.556Z,9.10
2022-10-17T17:44:52.878Z,5.97
2022-10-17T17:47:20.212Z,7.50
2022-10-17T17:49:47.803Z,6.40
2022-10-17T17:52:15.125Z,6.38
2022-10-17T17:54:42.429Z,6.53
2022-10-17T17:57:10.064Z,8.90
2022-10-17T17:59:39.649Z,7.20
2022-10-17T18:02:09.046Z,11.00
2022-10-17T18:04:36.687Z,5.20
2022-10-17T18:07:04.024Z,5.78
2022-10-17T18:09:31.341Z,7.07
2022-10-17T18:11:58.742Z,6.47
2022-10-17T18:14:26.285Z,7.93
2022-10-17T18:16:53.806Z,9.82
2022-10-17T18:19:22.365Z,10.20
2022-10-17T18:21:49.778Z,5.57
2022-10-17T18:24:17.204Z,9.02
2022-10-17T18:26:44.603Z,8.32
2022-10-17T18:29:12.876Z,7.43
2022-10-17T18:31:40.465Z,8.65
2022-10-17T18:34:07.841Z,14.10
2022-10-17T18:36:35.711Z,5.85
2022-10-17T18:39:04.215Z,5.85
2022-10-17T18:41:33.186Z,11.00
2022-10-17T18:44:00.957Z,13.50
2022-10-17T18:46:35.631Z,7.25
2022-10-17T18:49:03.737Z,7.05
2022-10-17T18:51:31.098Z,9.15
2022-10-17T18:53:59.017Z,6.97
2022-10-17T18:56:27.063Z,10.48
2022-10-17T18:58:54.757Z,10.20
2022-10-17T19:01:27.434Z,6.32
2022-10-17T19:03:57.969Z,6.57
2022-10-17T19:06:32.117Z,6.53
2022-10-17T19:09:07.041Z,7.25
2022-10-17T19:11:36.490Z,6.15
2022-10-17T19:14:12.857Z,8.15
2022-10-17T19:16:46.205Z,6.55
2022-10-17T19:19:25.050Z,8.30
2022-10-17T19:21:53.366Z,9.60
2022-10-17T19:24:27.266Z,11.63
2022-10-17T19:26:58.412Z,13.45
2022-10-17T19:29:31.915Z,11.07
2022-10-17T19:32:00.668Z,6.78
2022-10-17T19:34:28.439Z,11.43
2022-10-17T19:36:56.170Z,7.97
2022-10-17T19:39:25.364Z,9.43
2022-10-17T19:41:53.012Z,6.65
2022-10-17T19:44:20.477Z,4.90
2022-10-17T19:46:49.507Z,10.38
2022-10-17T19:49:18.015Z,10.27
2022-10-17T19:51:45.297Z,7.75
2022-10-17T19:54:13.222Z,7.53
2022-10-17T19:56:43.563Z,6.13
2022-10-17T19:59:14.756Z,5.32
2022-10-17T20:01:42.862Z,5.35
2022-10-17T20:04:12.440Z,7.47
2022-10-17T20:06:40.984Z,7.40
2022-10-17T20:09:12.355Z,8.45
2022-10-17T20:11:43.468Z,5.38
2022-10-17T20:14:10.672Z,6.10
2022-10-17T20:16:38.120Z,8.23
2022-10-17T20:19:11.772Z,9.73
2022-10-17T20:21:40.053Z,5.32
2022-10-17T20:24:13.096Z,4.70
2022-10-17T20:26:40.759Z,5.85
2022-10-17T20:29:20.619Z,6.93
2022-10-17T20:31:48.926Z,9.35
2022-10-17T20:34:18.533Z,8.18
2022-10-17T20:36:47.127Z,5.47
2022-10-17T20:39:16.589Z,4.88
2022-10-17T20:41:45.018Z,5.97
2022-10-17T20:44:12.947Z,6.13
2022-10-17T20:46:45.221Z,7.45
2022-10-17T20:49:21.983Z,6.50
2022-10-17T20:51:49.348Z,7.38
2022-10-17T20:54:16.713Z,6.55
2022-10-17T20:56:44.111Z,5.43
2022-10-17T20:59:16.173Z,7.50
2022-10-17T21:01:45.179Z,4.65
2022-10-17T21:04:44.794Z,7.05
2022-10-17T21:07:00.990Z,4.82
2022-10-17T21:09:29.277Z,4.00
2022-10-17T21:11:57.159Z,5.85
2022-10-17T21:14:25.240Z,6.95
2022-10-17T21:16:52.686Z,7.20
2022-10-17T21:19:21.852Z,5.65
2022-10-17T21:21:49.545Z,4.88
2022-10-17T21:24:19.324Z,7.05
2022-10-17T21:26:50.311Z,7.55
2022-10-17T21:29:17.634Z,4.10
2022-10-17T21:31:45.372Z,5.45
2022-10-17T21:34:20.104Z,10.00
2022-10-17T21:36:48.404Z,4.63
2022-10-17T21:39:16.689Z,5.97
2022-10-17T21:41:45.191Z,4.15
2022-10-17T21:44:19.842Z,5.15
2022-10-17T21:46:47.963Z,5.57
2022-10-17T21:49:18.756Z,5.82
2022-10-17T21:51:47.676Z,7.70
2022-10-17T21:54:16.533Z,5.93
2022-10-17T21:56:44.352Z,7.97
2022-10-17T21:59:11.868Z,5.80
2022-10-17T22:01:42.238Z,5.03
2022-10-17T22:04:17.117Z,5.70
2022-10-17T22:06:47.042Z,9.82
2022-10-17T22:09:26.494Z,6.18
2022-10-17T22:11:56.888Z,4.55
2022-10-17T22:14:26.775Z,8.05
2022-10-17T22:16:55.005Z,6.32
2022-10-17T22:19:26.990Z,4.35
2022-10-17T22:21:54.851Z,4.82
2022-10-17T22:24:23.210Z,4.40
2022-10-17T22:26:51.156Z,3.88
2022-10-17T22:29:18.631Z,4.13
2022-10-17T22:31:46.142Z,5.03
2022-10-17T22:34:15.675Z,4.38
2022-10-17T22:36:43.205Z,5.82
2022-10-17T22:39:11.200Z,7.30
2022-10-17T22:41:38.482Z,4.72
2022-10-17T22:44:06.521Z,9.10
2022-10-17T22:46:34.454Z,9.45
2022-10-17T22:49:01.688Z,6.70
2022-10-17T22:51:28.953Z,3.85
2022-10-17T22:53:56.707Z,4.50
2022-10-17T22:56:24.086Z,7.55
2022-10-17T22:58:52.080Z,5.20
2022-10-17T23:01:23.698Z,3.72
2022-10-17T23:03:52.527Z,5.03
2022-10-17T23:06:20.885Z,4.38
2022-10-17T23:08:48.558Z,4.97
2022-10-17T23:11:16.787Z,5.60
2022-10-17T23:13:44.514Z,6.97
2022-10-17T23:16:11.846Z,7.70
2022-10-17T23:18:39.514Z,6.60
2022-10-17T23:21:08.023Z,5.88
2022-10-17T23:23:35.374Z,6.40
2022-10-17T23:26:08.975Z,5.03
2022-10-17T23:28:36.798Z,6.00
2022-10-17T23:31:20.349Z,5.88
2022-10-17T23:33:50.205Z,5.60
2022-10-17T23:36:19.985Z,4.50
2022-10-17T23:38:48.659Z,5.60
2022-10-17T23:41:17.182Z,9.40
2022-10-17T23:43:44.936Z,4.95
2022-10-17T23:46:12.656Z,5.63
2022-10-17T23:48:41.632Z,5.85
2022-10-17T23:51:11.023Z,12.30
2022-10-17T23:53:39.703Z,6.35
2022-10-17T23:56:08.466Z,6.32
2022-10-17T23:58:36.742Z,5.32
